Time;durP1;ratioP1;P1;durP2;ratioP2;P2;SDS_P1;SDS_P2;PMS_P1;PMS_P2;Temp;Humidity;BMP_temperature;BMP_pressure;BME280_temperature;BME280_humidity;BME280_pressure;Samples;Min_cycle;Max_cycle;Signal;HPM_P1;HPM_P2
2022/08/07 00:00:59;;;;;;;0.10;0.10;;;24.70;39.10;;;;;;6324723;27;20789;-41
2022/08/07 00:04:13;;;;;;;0.30;0.10;;;24.60;39.00;;;;;;6324371;27;20972;-42
2022/08/07 00:07:17;;;;;;;0.10;0.10;;;24.60;39.00;;;;;;6324888;27;20046;-41
2022/08/07 00:10:21;;;;;;;0.10;0.10;;;24.70;39.10;;;;;;6323664;27;20051;-40
2022/08/07 00:13:32;;;;;;;0.30;0.25;;;24.50;39.00;;;;;;6308329;27;20057;-41
2022/08/07 00:16:35;;;;;;;0.30;0.10;;;24.60;39.00;;;;;;6308399;27;20115;-40
2022/08/07 00:19:36;;;;;;;0.15;0.10;;;24.60;39.10;;;;;;6325161;27;20046;-42
2022/08/07 00:22:57;;;;;;;;;;;24.70;39.10;;;;;;6292130;27;20825;-41
2022/08/07 00:26:02;;;;;;;0.20;0.20;;;24.70;39.20;;;;;;6328541;27;19923;-42
2022/08/07 00:29:24;;;;;;;0.10;0.10;;;24.50;39.10;;;;;;6311663;27;20077;-40
2022/08/07 00:32:33;;;;;;;0.10;0.10;;;24.60;39.20;;;;;;6302762;27;20031;-40
2022/08/07 00:35:36;;;;;;;0.17;0.10;;;24.70;39.30;;;;;;6323782;27;20039;-40
2022/08/07 00:38:38;;;;;;;0.10;0.10;;;24.50;39.20;;;;;;6325691;27;20342;-40
2022/08/07 00:41:48;;;;;;;0.22;0.20;;;24.50;39.20;;;;;;6322934;27;20146;-40
2022/08/07 00:45:03;;;;;;;0.20;0.20;;;24.50;39.30;;;;;;6308074;27;20069;-41
2022/08/07 00:48:10;;;;;;;0.38;0.10;;;24.50;39.30;;;;;;6326471;27;20112;-41
2022/08/07 00:51:13;;;;;;;0.10;0.10;;;24.50;39.30;;;;;;6324525;27;20145;-40
2022/08/07 00:54:14;;;;;;;0.77;0.20;;;24.40;39.40;;;;;;6325627;27;21044;-40
2022/08/07 00:57:22;;;;;;;0.10;0.10;;;24.50;39.30;;;;;;6327631;27;20045;-39
2022/08/07 01:00:24;;;;;;;0.10;0.10;;;24.50;39.30;;;;;;6309856;27;20979;-42
2022/08/07 01:03:27;;;;;;;0.30;0.10;;;24.50;39.30;;;;;;6330906;27;20042;-40
2022/08/07 01:06:49;;;;;;;0.15;0.10;;;24.50;39.30;;;;;;6297982;27;20038;-41
2022/08/07 01:09:55;;;;;;;0.20;0.20;;;24.50;39.40;;;;;;6324603;27;20912;-42
2022/08/07 01:13:13;;;;;;;0.22;0.15;;;24.60;39.40;;;;;;6321818;27;20038;-42
2022/08/07 01:16:19;;;;;;;0.10;0.10;;;24.50;39.30;;;;;;6326162;27;20070;-41
2022/08/07 01:19:34;;;;;;;0.38;0.10;;;24.60;39.40;;;;;;6320291;27;20879;-42
2022/08/07 01:22:42;;;;;;;0.10;0.10;;;24.60;39.40;;;;;;6316177;27;20051;-42
2022/08/07 01:25:55;;;;;;;0.08;0.08;;;24.50;39.30;;;;;;6325302;27;20067;-44
2022/08/07 01:28:59;;;;;;;0.17;0.10;;;24.50;39.30;;;;;;6326180;27;20043;-40
2022/08/07 01:32:04;;;;;;;0.30;0.13;;;24.50;39.30;;;;;;6329694;27;20163;-40
2022/08/07 01:35:08;;;;;;;0.30;0.10;;;24.50;39.40;;;;;;6326019;27;20053;-41
2022/08/07 01:38:12;;;;;;;0.10;0.10;;;24.60;39.40;;;;;;6328637;27;20045;-42
2022/08/07 01:41:26;;;;;;;0.15;0.10;;;24.70;39.50;;;;;;6326079;27;20046;-40
2022/08/07 01:44:32;;;;;;;0.28;0.10;;;24.60;39.50;;;;;;6310132;27;20023;-41
2022/08/07 01:47:37;;;;;;;0.47;0.10;;;24.50;39.40;;;;;;6318540;27;20144;-40
2022/08/07 01:51:03;;;;;;;0.13;0.13;;;24.50;39.40;;;;;;6296962;27;20584;-42
2022/08/07 01:54:28;;;;;;;0.38;0.10;;;24.50;39.50;;;;;;6281792;27;20420;-39
2022/08/07 01:57:41;;;;;;;0.22;0.10;;;24.60;39.50;;;;;;6312683;27;20372;-41
2022/08/07 02:01:11;;;;;;;0.10;0.10;;;24.40;39.40;;;;;;6300319;27;20493;-41
2022/08/07 02:04:40;;;;;;;0.10;0.10;;;24.60;39.60;;;;;;6297135;27;20934;-40
2022/08/07 02:08:02;;;;;;;0.20;0.10;;;24.50;39.60;;;;;;6311771;27;20371;-41
2022/08/07 02:11:11;;;;;;;0.10;0.10;;;24.50;39.60;;;;;;6312028;27;20520;-40
2022/08/07 02:14:38;;;;;;;0.15;0.10;;;24.50;39.60;;;;;;6300719;27;20254;-42
2022/08/07 02:17:52;;;;;;;;;;;24.50;39.60;;;;;;6315172;27;20076;-42
2022/08/07 02:20:55;;;;;;;0.20;0.20;;;24.50;39.70;;;;;;6312514;27;20478;-41
2022/08/07 02:23:59;;;;;;;0.10;0.10;;;24.40;39.70;;;;;;6316270;27;20428;-41
2022/08/07 02:27:04;;;;;;;0.30;0.10;;;24.50;39.70;;;;;;6317789;27;20336;-42
2022/08/07 02:30:07;;;;;;;0.43;0.10;;;24.50;39.70;;;;;;6297631;27;20533;-41
2022/08/07 02:33:11;;;;;;;0.10;0.10;;;24.50;39.70;;;;;;6317445;27;20158;-42
2022/08/07 02:36:14;;;;;;;0.55;0.20;;;24.40;39.70;;;;;;6316649;27;20035;-44
2022/08/07 02:39:38;;;;;;;0.20;0.10;;;24.50;39.80;;;;;;6314483;27;20286;-41
2022/08/07 02:42:51;;;;;;;0.10;0.10;;;24.50;39.80;;;;;;6312416;27;20325;-44
2022/08/07 02:45:57;;;;;;;0.52;0.15;;;24.50;39.80;;;;;;6311460;27;20054;-41
2022/08/07 02:49:05;;;;;;;0.10;0.10;;;24.50;39.90;;;;;;6292400;27;20898;-41
2022/08/07 02:52:13;;;;;;;0.10;0.10;;;24.50;40.00;;;;;;6314376;27;20066;-41
2022/08/07 02:55:20;;;;;;;0.45;0.15;;;24.40;39.90;;;;;;6297156;27;20331;-40
2022/08/07 02:58:32;;;;;;;0.52;0.10;;;24.50;40.00;;;;;;6298795;27;20765;-41
2022/08/07 03:01:37;;;;;;;0.20;0.20;;;24.40;39.90;;;;;;6298955;27;20039;-41
2022/08/07 03:04:47;;;;;;;0.25;0.20;;;24.50;40.00;;;;;;6314812;27;20043;-40
2022/08/07 03:07:55;;;;;;;0.17;0.15;;;24.50;40.10;;;;;;6311187;27;20366;-42
2022/08/07 03:11:15;;;;;;;0.10;0.10;;;24.40;40.00;;;;;;6313415;27;20238;-42
2022/08/07 03:14:19;;;;;;;0.20;0.20;;;24.50;40.10;;;;;;6315971;27;20119;-42
2022/08/07 03:17:24;;;;;;;0.30;0.10;;;24.30;40.00;;;;;;6318279;27;20258;-42
2022/08/07 03:20:32;;;;;;;0.30;0.20;;;24.40;40.10;;;;;;6313803;27;21865;-43
2022/08/07 03:23:36;;;;;;;0.10;0.10;;;24.40;40.10;;;;;;6313539;27;20542;-40
2022/08/07 03:27:01;;;;;;;0.20;0.20;;;24.30;40.10;;;;;;6304699;27;20115;-41
2022/08/07 03:30:15;;;;;;;0.43;0.10;;;24.40;40.20;;;;;;6318160;27;20272;-41
2022/08/07 03:33:18;;;;;;;0.60;0.10;;;24.50;40.20;;;;;;6319022;27;20050;-40
2022/08/07 03:36:24;;;;;;;0.50;0.20;;;24.20;40.10;;;;;;6311619;27;20299;-42
2022/08/07 03:39:33;;;;;;;0.20;0.10;;;24.20;40.20;;;;;;6314143;27;20116;-42
2022/08/07 03:42:55;;;;;;;0.20;0.15;;;24.30;40.20;;;;;;6300849;27;20391;-40
2022/08/07 03:45:59;;;;;;;0.28;0.10;;;24.30;40.30;;;;;;6314614;27;20463;-40
2022/08/07 03:49:01;;;;;;;0.20;0.20;;;24.40;40.60;;;;;;6315891;27;20505;-45
2022/08/07 03:52:13;;;;;;;0.20;0.10;;;24.20;40.40;;;;;;6310837;27;20202;-41
2022/08/07 03:55:24;;;;;;;0.10;0.10;;;24.30;40.40;;;;;;6296456;27;20202;-41
2022/08/07 03:58:47;;;;;;;0.55;0.20;;;24.20;40.40;;;;;;6299086;27;20062;-42
2022/08/07 04:02:10;;;;;;;0.10;0.10;;;23.60;40.10;;;;;;6286383;27;20046;-42
2022/08/07 04:05:19;;;;;;;0.20;0.10;;;24.30;40.50;;;;;;6316269;27;20344;-42
2022/08/07 04:08:27;;;;;;;0.10;0.10;;;24.20;40.40;;;;;;6294340;27;20226;-40
2022/08/07 04:11:34;;;;;;;0.30;0.10;;;24.10;41.00;;;;;;6311891;27;20149;-41
2022/08/07 04:14:57;;;;;;;0.20;0.10;;;24.30;40.50;;;;;;6297255;27;20277;-42
2022/08/07 04:18:02;;;;;;;0.17;0.17;;;24.20;40.50;;;;;;6309829;27;20128;-42
2022/08/07 04:21:24;;;;;;;0.20;0.20;;;24.20;40.60;;;;;;6290426;27;20585;-42
2022/08/07 04:24:30;;;;;;;0.20;0.10;;;24.30;40.70;;;;;;6309684;27;20353;-42
2022/08/07 04:27:44;;;;;;;0.35;0.15;;;24.20;40.60;;;;;;6309180;27;20374;-42
2022/08/07 04:31:00;;;;;;;0.17;0.10;;;24.20;40.70;;;;;;6313927;27;20364;-42
2022/08/07 04:34:08;;;;;;;0.10;0.10;;;24.20;40.70;;;;;;6316210;27;20054;-42
2022/08/07 04:37:20;;;;;;;0.20;0.20;;;24.30;40.80;;;;;;6316978;27;20355;-43
2022/08/07 04:40:25;;;;;;;0.20;0.10;;;24.20;40.80;;;;;;6316182;27;20636;-41
2022/08/07 04:43:35;;;;;;;0.10;0.10;;;24.10;40.70;;;;;;6313411;27;20050;-41
2022/08/07 04:47:05;;;;;;;0.30;0.10;;;24.10;40.80;;;;;;6300595;27;20568;-42
2022/08/07 04:50:25;;;;;;;0.50;0.20;;;23.60;40.60;;;;;;6284214;27;20260;-40
2022/08/07 04:53:58;;;;;;;0.22;0.20;;;24.10;40.80;;;;;;6311964;27;20055;-40
2022/08/07 04:57:20;;;;;;;0.30;0.20;;;24.00;40.80;;;;;;6297914;27;20426;-45
2022/08/07 05:00:49;;;;;;;0.10;0.10;;;24.10;40.90;;;;;;6295318;27;20367;-41
2022/08/07 05:03:57;;;;;;;0.20;0.15;;;24.20;41.00;;;;;;6312241;27;20039;-41
2022/08/07 05:07:17;;;;;;;0.20;0.10;;;24.20;41.00;;;;;;6310329;27;20047;-44
2022/08/07 05:10:32;;;;;;;0.30;0.10;;;24.10;41.00;;;;;;6312347;27;20371;-41
2022/08/07 05:13:41;;;;;;;;;;;24.10;41.00;;;;;;6282018;27;20796;-43
2022/08/07 05:17:05;;;;;;;0.10;0.10;;;24.00;41.00;;;;;;6296560;27;19949;-42
2022/08/07 05:20:20;;;;;;;0.10;0.10;;;24.10;41.00;;;;;;6312390;27;20454;-41
2022/08/07 05:23:29;;;;;;;0.10;0.10;;;24.00;41.00;;;;;;6310562;27;20301;-40
2022/08/07 05:26:38;;;;;;;0.40;0.20;;;24.00;41.10;;;;;;6314408;27;20042;-41
2022/08/07 05:29:44;;;;;;;0.20;0.20;;;24.10;41.10;;;;;;6314515;27;20501;-41
2022/08/07 05:32:54;;;;;;;;;;;24.10;41.20;;;;;;6313727;27;20043;-40
2022/08/07 05:36:00;;;;;;;0.20;0.20;;;24.20;41.20;;;;;;6309765;27;20480;-42
2022/08/07 05:39:05;;;;;;;0.20;0.20;;;24.20;41.20;;;;;;6312902;27;20058;-42
2022/08/07 05:42:31;;;;;;;0.30;0.20;;;24.00;41.20;;;;;;6298165;27;20108;-42
2022/08/07 05:45:42;;;;;;;0.28;0.20;;;23.80;41.20;;;;;;6317606;27;20565;-42
2022/08/07 05:48:52;;;;;;;0.20;0.10;;;24.10;41.40;;;;;;6314942;27;20187;-40
2022/08/07 05:52:03;;;;;;;0.63;0.20;;;24.10;41.30;;;;;;6309731;27;20925;-45
2022/08/07 05:55:07;;;;;;;0.20;0.13;;;24.00;41.30;;;;;;6314518;27;20463;-43
2022/08/07 05:58:18;;;;;;;0.20;0.13;;;24.10;41.40;;;;;;6311217;27;20050;-42
2022/08/07 06:01:40;;;;;;;0.10;0.10;;;24.10;41.40;;;;;;6309641;27;20212;-42
2022/08/07 06:04:50;;;;;;;0.20;0.10;;;24.00;41.40;;;;;;6291733;27;20035;-41
2022/08/07 06:07:53;;;;;;;0.20;0.20;;;24.00;41.40;;;;;;6289676;27;20039;-41
2022/08/07 06:11:16;;;;;;;0.20;0.20;;;24.00;41.50;;;;;;6291615;27;20830;-43
2022/08/07 06:14:17;;;;;;;0.22;0.22;;;24.00;41.50;;;;;;6312546;27;20109;-40
2022/08/07 06:17:33;;;;;;;0.30;0.20;;;24.00;41.50;;;;;;6312451;27;20148;-41
2022/08/07 06:20:43;;;;;;;0.32;0.20;;;24.00;41.60;;;;;;6313429;27;20179;-44
2022/08/07 06:24:05;;;;;;;0.20;0.20;;;24.00;41.60;;;;;;6276218;27;20503;-43
2022/08/07 06:27:28;;;;;;;0.40;0.20;;;23.90;41.50;;;;;;6294817;27;20144;-41
2022/08/07 06:30:52;;;;;;;0.20;0.20;;;24.10;41.60;;;;;;6291985;27;20039;-43
2022/08/07 06:33:59;;;;;;;0.30;0.30;;;24.00;41.60;;;;;;6308396;27;20545;-44
2022/08/07 06:37:01;;;;;;;0.20;0.17;;;24.10;41.70;;;;;;6307908;27;20271;-40
2022/08/07 06:40:10;;;;;;;0.55;0.25;;;24.00;41.70;;;;;;6305797;27;20598;-43
2022/08/07 06:43:25;;;;;;;0.10;0.10;;;24.00;41.80;;;;;;6309007;27;20365;-40
2022/08/07 06:46:40;;;;;;;0.30;0.20;;;24.00;41.80;;;;;;6292673;27;20054;-42
2022/08/07 06:49:45;;;;;;;0.10;0.10;;;24.00;41.80;;;;;;6306538;27;20043;-42
2022/08/07 06:53:03;;;;;;;0.20;0.13;;;24.00;41.80;;;;;;6307763;27;20104;-40
2022/08/07 06:56:09;;;;;;;0.20;0.20;;;24.00;41.90;;;;;;6287696;27;20301;-42
2022/08/07 06:59:21;;;;;;;0.20;0.10;;;24.00;41.80;;;;;;6311612;27;20266;-41
2022/08/07 07:02:45;;;;;;;0.20;0.10;;;23.90;41.80;;;;;;6278578;27;20264;-41
2022/08/07 07:05:55;;;;;;;0.28;0.20;;;24.00;41.90;;;;;;6306243;27;20271;-42
2022/08/07 07:09:17;;;;;;;0.30;0.20;;;24.30;42.00;;;;;;6304358;27;20347;-41
2022/08/07 07:12:34;;;;;;;0.20;0.20;;;24.10;42.00;;;;;;6305033;27;20455;-41
2022/08/07 07:15:41;;;;;;;0.47;0.20;;;24.00;42.00;;;;;;6306552;27;20516;-41
2022/08/07 07:18:48;;;;;;;0.43;0.20;;;23.90;41.90;;;;;;6307282;27;20413;-42
2022/08/07 07:21:54;;;;;;;0.60;0.20;;;24.00;42.00;;;;;;6308003;27;20593;-43
2022/08/07 07:25:15;;;;;;;0.32;0.20;;;24.00;42.00;;;;;;6308394;27;20113;-40
2022/08/07 07:28:40;;;;;;;0.40;0.20;;;24.00;42.00;;;;;;6292085;27;20360;-43
2022/08/07 07:32:06;;;;;;;0.22;0.22;;;24.20;42.30;;;;;;6292539;27;20043;-40
2022/08/07 07:35:13;;;;;;;0.15;0.10;;;24.10;42.10;;;;;;6305440;27;20344;-41
2022/08/07 07:38:19;;;;;;;0.30;0.30;;;24.20;42.10;;;;;;6305909;27;20075;-41
2022/08/07 07:41:23;;;;;;;0.10;0.10;;;24.10;42.10;;;;;;6306265;27;20648;-40
2022/08/07 07:44:46;;;;;;;0.20;0.20;;;24.10;42.10;;;;;;6294463;27;20267;-40
2022/08/07 07:47:53;;;;;;;0.15;0.10;;;24.10;42.00;;;;;;6303880;27;20038;-41
2022/08/07 07:50:58;;;;;;;0.43;0.20;;;24.20;42.10;;;;;;6304221;27;20386;-40
2022/08/07 07:54:09;;;;;;;0.40;0.20;;;24.20;42.00;;;;;;6305030;27;20562;-40
2022/08/07 07:57:13;;;;;;;0.28;0.20;;;24.10;41.90;;;;;;6308879;27;21108;-43
2022/08/07 08:00:18;;;;;;;0.43;0.30;;;24.20;41.90;;;;;;6302127;27;20038;-41
2022/08/07 08:03:35;;;;;;;0.22;0.22;;;24.20;41.90;;;;;;6304451;27;20050;-44
2022/08/07 08:06:57;;;;;;;0.25;0.20;;;24.10;41.80;;;;;;6291052;27;20059;-41
2022/08/07 08:10:06;;;;;;;0.20;0.17;;;24.20;42.30;;;;;;6311269;27;20069;-40
2022/08/07 08:13:10;;;;;;;0.20;0.20;;;24.30;41.70;;;;;;6283876;27;20042;-40
2022/08/07 08:16:20;;;;;;;0.30;0.20;;;24.30;41.60;;;;;;6313785;27;20300;-40
2022/08/07 08:19:29;;;;;;;0.30;0.20;;;24.20;41.50;;;;;;6296553;27;20693;-41
2022/08/07 08:29:32;;;;;;;0.17;0.17;;;24.30;41.30;;;;;;6292369;27;20952;-42
2022/08/07 08:32:58;;;;;;;0.20;0.20;;;24.30;41.20;;;;;;6294290;27;20375;-41
2022/08/07 08:36:02;;;;;;;0.10;0.10;;;24.30;41.10;;;;;;6277930;27;20051;-40
2022/08/07 08:39:08;;;;;;;0.40;0.25;;;24.30;41.00;;;;;;6310137;27;20042;-40
2022/08/07 08:42:18;;;;;;;0.10;0.10;;;24.30;41.00;;;;;;6309729;27;20787;-41
2022/08/07 08:45:28;;;;;;;0.55;0.20;;;24.40;40.90;;;;;;6313850;27;20198;-40
2022/08/07 08:48:57;;;;;;;0.20;0.20;;;24.30;40.80;;;;;;6296727;27;20045;-41
2022/08/07 08:52:07;;;;;;;0.20;0.20;;;24.30;40.80;;;;;;6280647;27;21456;-41
2022/08/07 08:55:24;;;;;;;0.38;0.17;;;24.50;40.80;;;;;;6293217;27;20066;-42
2022/08/07 08:58:52;;;;;;;0.28;0.10;;;24.40;40.60;;;;;;6297515;27;20112;-42
2022/08/07 09:02:10;;;;;;;0.10;0.10;;;24.30;40.50;;;;;;6309483;27;20046;-40
2022/08/07 09:05:25;;;;;;;0.10;0.10;;;24.50;40.50;;;;;;6295863;27;20042;-43
2022/08/07 09:08:52;;;;;;;0.20;0.10;;;24.30;40.30;;;;;;6277214;27;20369;-40
2022/08/07 09:12:04;;;;;;;0.20;0.20;;;24.40;40.30;;;;;;6307510;27;20394;-41
2022/08/07 09:15:37;;;;;;;0.20;0.20;;;24.30;40.20;;;;;;6281763;27;20172;-44
2022/08/07 09:19:11;;;;;;;0.20;0.13;;;24.40;40.20;;;;;;6279172;27;20043;-42
2022/08/07 09:22:46;;;;;;;0.20;0.20;;;24.50;40.10;;;;;;6279223;27;20038;-41
2022/08/07 09:26:17;;;;;;;0.20;0.20;;;24.50;40.00;;;;;;6276138;27;20317;-42
2022/08/07 09:29:32;;;;;;;0.25;0.20;;;24.50;39.80;;;;;;6309475;27;20198;-41
2022/08/07 09:33:03;;;;;;;0.40;0.22;;;24.50;39.70;;;;;;6278351;27;20043;-42
2022/08/07 09:36:13;;;;;;;0.20;0.20;;;24.50;39.60;;;;;;6288317;27;20039;-41
2022/08/07 09:39:26;;;;;;;0.22;0.15;;;24.50;39.50;;;;;;6286582;27;20107;-40
2022/08/07 09:42:55;;;;;;;0.20;0.20;;;24.30;39.30;;;;;;6260123;27;20046;-42
2022/08/07 09:46:10;;;;;;;0.40;0.30;;;24.50;39.30;;;;;;6304615;27;20299;-42
2022/08/07 09:49:47;;;;;;;0.20;0.10;;;24.50;39.20;;;;;;6290251;27;20039;-40
2022/08/07 09:53:08;;;;;;;0.10;0.10;;;24.50;39.10;;;;;;6305097;27;20198;-42
2022/08/07 09:56:38;;;;;;;0.20;0.20;;;24.50;39.00;;;;;;6302785;27;20255;-41
2022/08/07 10:00:01;;;;;;;0.10;0.10;;;24.40;38.80;;;;;;6308016;27;20843;-41
2022/08/07 10:03:37;;;;;;;0.22;0.10;;;24.40;38.80;;;;;;6307402;27;20307;-41
2022/08/07 10:07:12;;;;;;;0.20;0.20;;;24.50;38.70;;;;;;6285465;27;20287;-43
2022/08/07 10:10:37;;;;;;;0.35;0.15;;;24.60;38.80;;;;;;6285127;27;20576;-42
2022/08/07 10:14:10;;;;;;;0.10;0.10;;;24.60;38.70;;;;;;6292543;27;20980;-42
2022/08/07 10:17:33;;;;;;;0.30;0.20;;;24.60;38.50;;;;;;6306342;27;20913;-41
2022/08/07 10:21:14;;;;;;;0.30;0.25;;;24.60;38.40;;;;;;6293606;27;20081;-41
2022/08/07 10:24:54;;;;;;;0.20;0.20;;;24.60;38.30;;;;;;6290835;27;20604;-41
2022/08/07 10:28:31;;;;;;;0.30;0.20;;;24.50;38.10;;;;;;6306716;27;21034;-41
2022/08/07 10:31:48;;;;;;;0.20;0.20;;;24.60;38.10;;;;;;6294632;27;20362;-41
2022/08/07 10:35:09;;;;;;;0.20;0.20;;;24.60;38.00;;;;;;6310792;27;20061;-41
2022/08/07 10:38:27;;;;;;;0.20;0.20;;;24.70;38.00;;;;;;6307653;27;20122;-41
2022/08/07 10:42:00;;;;;;;0.20;0.20;;;24.60;37.90;;;;;;6290346;27;20074;-42
2022/08/07 10:45:27;;;;;;;0.35;0.20;;;24.60;37.80;;;;;;6307362;27;20157;-40
2022/08/07 10:48:56;;;;;;;0.30;0.10;;;24.50;37.70;;;;;;6288925;27;20043;-43
2022/08/07 10:52:11;;;;;;;0.30;0.20;;;24.60;37.70;;;;;;6290763;27;20050;-42
2022/08/07 10:55:20;;;;;;;0.30;0.30;;;24.70;37.70;;;;;;6304340;27;20097;-41
2022/08/07 10:58:56;;;;;;;0.30;0.28;;;24.70;37.60;;;;;;6306440;27;20039;-40
2022/08/07 11:02:10;;;;;;;0.20;0.20;;;24.60;37.50;;;;;;6308376;27;20225;-41
2022/08/07 11:05:36;;;;;;;0.20;0.13;;;24.70;37.50;;;;;;6308181;27;20393;-42
2022/08/07 11:09:01;;;;;;;0.30;0.20;;;24.60;37.40;;;;;;6272428;27;20147;-42
2022/08/07 11:12:16;;;;;;;0.10;0.10;;;24.70;37.40;;;;;;6286904;27;20992;-43
2022/08/07 11:15:38;;;;;;;0.20;0.20;;;24.60;37.30;;;;;;6291047;27;20604;-40
2022/08/07 11:18:47;;;;;;;0.20;0.10;;;24.80;37.30;;;;;;6302947;27;20996;-41
2022/08/07 11:22:05;;;;;;;0.20;0.20;;;24.90;37.20;;;;;;6304234;27;20127;-40
2022/08/07 11:25:32;;;;;;;1.00;0.20;;;24.70;37.10;;;;;;6303384;27;20294;-43
2022/08/07 11:28:58;;;;;;;0.50;0.30;;;24.50;36.80;;;;;;6287780;27;20039;-41
2022/08/07 11:32:07;;;;;;;0.20;0.20;;;24.70;36.90;;;;;;6300927;27;20542;-41
2022/08/07 11:35:17;;;;;;;0.85;0.45;;;24.70;36.80;;;;;;6286093;27;21050;-43
2022/08/07 11:38:36;;;;;;;0.20;0.20;;;24.70;36.70;;;;;;6284677;27;20194;-40
2022/08/07 11:41:52;;;;;;;0.20;0.20;;;24.80;36.60;;;;;;6282240;27;20258;-43
2022/08/07 11:45:14;;;;;;;0.20;0.20;;;24.70;36.50;;;;;;6306647;27;20665;-42
2022/08/07 11:48:47;;;;;;;0.20;0.20;;;24.70;36.40;;;;;;6304011;27;20043;-41
2022/08/07 11:52:25;;;;;;;0.30;0.30;;;24.70;36.30;;;;;;6286777;27;20056;-42
2022/08/07 11:55:49;;;;;;;0.20;0.15;;;24.60;36.30;;;;;;6306062;27;20057;-40
2022/08/07 11:59:32;;;;;;;0.52;0.35;;;24.80;36.20;;;;;;6293737;27;20235;-41
2022/08/07 12:03:14;;;;;;;0.25;0.22;;;24.70;36.10;;;;;;6288820;27;20035;-41
2022/08/07 12:06:45;;;;;;;0.30;0.30;;;24.70;36.10;;;;;;6288006;27;20278;-41
2022/08/07 12:10:11;;;;;;;0.20;0.17;;;24.70;36.10;;;;;;6286442;27;20949;-41
2022/08/07 12:13:22;;;;;;;0.30;0.30;;;24.80;36.10;;;;;;6285036;27;20772;-43
2022/08/07 12:16:45;;;;;;;0.20;0.20;;;24.80;36.00;;;;;;6287886;27;20034;-40
2022/08/07 12:19:54;;;;;;;0.25;0.20;;;24.80;36.00;;;;;;6304447;27;20039;-42
2022/08/07 12:23:18;;;;;;;0.38;0.20;;;24.90;36.10;;;;;;6305471;27;21118;-40
2022/08/07 12:26:43;;;;;;;0.28;0.20;;;24.80;36.00;;;;;;6286041;27;20039;-40
2022/08/07 12:29:56;;;;;;;0.20;0.20;;;24.70;35.90;;;;;;6288872;27;20110;-41
2022/08/07 12:33:04;;;;;;;0.20;0.20;;;24.70;35.80;;;;;;6264441;27;20528;-41
2022/08/07 12:36:25;;;;;;;0.20;0.20;;;24.70;35.80;;;;;;6287720;27;20059;-40
2022/08/07 12:39:38;;;;;;;0.17;0.17;;;24.70;35.80;;;;;;6281067;27;20260;-42
2022/08/07 12:42:47;;;;;;;0.35;0.10;;;24.70;35.90;;;;;;6294246;27;20316;-42
2022/08/07 12:46:09;;;;;;;0.20;0.10;;;24.90;35.90;;;;;;6295419;27;20364;-41
2022/08/07 12:49:20;;;;;;;0.10;0.10;;;24.90;35.90;;;;;;6272906;27;20215;-40
2022/08/07 12:52:47;;;;;;;0.43;0.38;;;24.90;35.90;;;;;;6291194;27;20292;-40
2022/08/07 12:56:01;;;;;;;0.15;0.15;;;24.90;35.80;;;;;;6302401;27;20062;-40
2022/08/07 12:59:07;;;;;;;0.17;0.17;;;24.90;35.80;;;;;;6306488;27;20067;-41
2022/08/07 13:02:31;;;;;;;0.30;0.20;;;24.90;35.80;;;;;;6285769;27;20309;-41
2022/08/07 13:05:53;;;;;;;0.20;0.20;;;24.90;35.80;;;;;;6307025;27;20318;-44
2022/08/07 13:09:26;;;;;;;0.10;0.10;;;24.90;35.70;;;;;;6288664;27;20026;-42
2022/08/07 13:12:58;;;;;;;0.20;0.20;;;24.90;35.70;;;;;;6286527;27;20585;-42
2022/08/07 13:16:09;;;;;;;0.20;0.20;;;24.90;35.70;;;;;;6306650;27;20041;-40
2022/08/07 13:19:22;;;;;;;0.10;0.10;;;24.90;35.60;;;;;;6290447;27;20593;-41
2022/08/07 13:22:51;;;;;;;0.20;0.20;;;25.00;35.60;;;;;;6287417;27;20092;-41
2022/08/07 13:26:01;;;;;;;0.20;0.20;;;24.90;35.60;;;;;;6307212;27;20373;-42
2022/08/07 13:29:11;;;;;;;0.30;0.20;;;24.90;35.50;;;;;;6303402;27;20344;-40
2022/08/07 13:32:18;;;;;;;0.20;0.20;;;24.90;35.40;;;;;;6286381;27;20629;-40
2022/08/07 13:35:41;;;;;;;0.25;0.15;;;24.90;35.40;;;;;;6287434;27;20466;-41
2022/08/07 13:39:08;;;;;;;0.20;0.10;;;24.90;35.30;;;;;;6281957;27;20499;-41
2022/08/07 13:42:31;;;;;;;0.20;0.20;;;24.90;35.30;;;;;;6282574;27;20039;-41
2022/08/07 13:45:42;;;;;;;0.30;0.22;;;24.90;35.30;;;;;;6303507;27;20095;-41
2022/08/07 13:49:06;;;;;;;0.20;0.17;;;24.90;35.10;;;;;;6285632;27;20339;-41
2022/08/07 13:52:29;;;;;;;0.40;0.20;;;24.90;35.10;;;;;;6290808;27;20392;-40
2022/08/07 13:55:40;;;;;;;0.10;0.10;;;25.00;35.00;;;;;;6286672;27;20141;-41
2022/08/07 13:59:00;;;;;;;0.20;0.13;;;25.00;34.90;;;;;;6301754;27;20453;-40
2022/08/07 14:02:13;;;;;;;0.47;0.20;;;25.00;34.90;;;;;;6299086;27;20760;-40
2022/08/07 14:05:21;;;;;;;0.20;0.20;;;25.00;34.80;;;;;;6299864;27;20848;-40
2022/08/07 14:08:24;;;;;;;0.20;0.20;;;24.90;34.70;;;;;;6296249;27;20039;-42
2022/08/07 14:11:29;;;;;;;0.22;0.20;;;25.10;34.70;;;;;;6285066;27;20431;-41
2022/08/07 14:14:55;;;;;;;0.20;0.13;;;25.00;34.70;;;;;;6287863;27;20031;-40
2022/08/07 14:18:01;;;;;;;0.10;0.10;;;25.00;34.60;;;;;;6304546;27;20539;-40
2022/08/07 14:21:26;;;;;;;0.17;0.17;;;25.00;34.60;;;;;;6287304;27;20304;-40
2022/08/07 14:24:51;;;;;;;0.65;0.20;;;25.00;34.50;;;;;;6274082;27;20539;-43
2022/08/07 14:27:55;;;;;;;0.28;0.20;;;24.90;34.50;;;;;;6301194;27;20194;-41
2022/08/07 14:31:23;;;;;;;0.60;0.30;;;25.00;34.40;;;;;;6290536;27;20131;-41
2022/08/07 14:34:26;;;;;;;0.20;0.20;;;25.00;34.40;;;;;;6286671;27;20314;-42
2022/08/07 14:37:32;;;;;;;0.20;0.10;;;24.90;34.40;;;;;;6285427;27;20393;-41
2022/08/07 14:40:41;;;;;;;0.30;0.20;;;24.90;34.30;;;;;;6304839;27;20361;-43
2022/08/07 14:43:52;;;;;;;0.10;0.10;;;25.10;34.50;;;;;;6302126;27;20159;-43
2022/08/07 14:47:12;;;;;;;0.20;0.10;;;25.00;34.40;;;;;;6306981;27;20838;-41
2022/08/07 14:50:26;;;;;;;0.15;0.10;;;24.90;34.30;;;;;;6301522;27;20303;-41
2022/08/07 14:53:32;;;;;;;0.40;0.10;;;25.00;34.40;;;;;;6303827;27;20365;-42
2022/08/07 14:56:55;;;;;;;0.20;0.13;;;25.00;34.50;;;;;;6262388;27;20352;-41
2022/08/07 15:00:00;;;;;;;0.20;0.10;;;25.10;34.50;;;;;;6297485;27;20753;-41
2022/08/07 15:03:10;;;;;;;0.28;0.20;;;25.10;34.60;;;;;;6302435;27;20948;-40
2022/08/07 15:06:24;;;;;;;0.35;0.25;;;25.20;34.70;;;;;;6298000;27;20043;-42
2022/08/07 15:09:27;;;;;;;0.10;0.10;;;25.00;34.60;;;;;;6264589;27;20047;-40
2022/08/07 15:12:51;;;;;;;0.10;0.10;;;25.10;34.60;;;;;;6282711;27;20039;-41
2022/08/07 15:16:03;;;;;;;0.20;0.20;;;25.10;34.70;;;;;;6300457;27;20954;-41
2022/08/07 15:19:16;;;;;;;0.17;0.10;;;25.10;34.70;;;;;;6302171;27;20388;-40
2022/08/07 15:22:21;;;;;;;0.35;0.20;;;25.10;34.70;;;;;;6280575;27;20047;-43
2022/08/07 15:25:49;;;;;;;0.17;0.17;;;25.00;34.70;;;;;;6286360;27;20316;-42
2022/08/07 15:28:57;;;;;;;0.20;0.20;;;25.10;34.80;;;;;;6298512;27;20327;-43
2022/08/07 15:32:24;;;;;;;0.10;0.10;;;25.20;34.90;;;;;;6288570;27;20031;-43
2022/08/07 15:35:42;;;;;;;0.15;0.15;;;25.10;34.80;;;;;;6302032;27;20430;-40
2022/08/07 15:39:06;;;;;;;0.22;0.20;;;25.00;34.80;;;;;;6283423;27;20285;-42
2022/08/07 15:42:36;;;;;;;0.30;0.20;;;25.00;34.80;;;;;;6305983;27;20047;-41
2022/08/07 15:45:49;;;;;;;0.40;0.20;;;24.90;34.80;;;;;;6282090;27;20155;-42
2022/08/07 15:49:13;;;;;;;0.20;0.20;;;25.10;34.90;;;;;;6283600;27;20373;-40
2022/08/07 15:52:20;;;;;;;0.20;0.20;;;24.90;34.70;;;;;;6298963;27;20051;-40
2022/08/07 15:55:26;;;;;;;0.20;0.20;;;25.00;34.80;;;;;;6281168;27;20039;-40
2022/08/07 15:58:50;;;;;;;0.20;0.20;;;25.10;34.90;;;;;;6285790;27;20047;-42
2022/08/07 16:01:54;;;;;;;1.17;0.30;;;25.10;34.90;;;;;;6303338;27;20620;-42
2022/08/07 16:05:11;;;;;;;0.20;0.20;;;25.10;34.90;;;;;;6301374;27;20057;-41
2022/08/07 16:08:20;;;;;;;0.20;0.20;;;25.10;34.90;;;;;;6280021;27;20046;-44
2022/08/07 16:11:59;;;;;;;0.40;0.30;;;25.00;34.90;;;;;;6286308;27;20268;-41
2022/08/07 16:15:15;;;;;;;0.30;0.30;;;25.10;35.00;;;;;;6301873;27;20520;-43
2022/08/07 16:18:50;;;;;;;0.28;0.28;;;25.10;34.90;;;;;;6285306;27;20999;-41
2022/08/07 16:22:05;;;;;;;0.35;0.20;;;25.10;34.80;;;;;;6315618;27;20035;-42
2022/08/07 16:25:38;;;;;;;0.50;0.25;;;25.10;34.80;;;;;;6298524;27;20925;-43
2022/08/07 16:29:09;;;;;;;0.30;0.30;;;25.10;34.80;;;;;;6301200;27;21188;-44
2022/08/07 16:32:34;;;;;;;0.30;0.22;;;25.10;34.70;;;;;;6293921;27;20883;-41
2022/08/07 16:35:43;;;;;;;0.28;0.25;;;25.20;34.80;;;;;;6304163;27;20152;-43
2022/08/07 16:39:24;;;;;;;0.35;0.30;;;25.10;34.70;;;;;;6318747;27;20066;-42
2022/08/07 16:42:59;;;;;;;0.30;0.30;;;25.20;34.70;;;;;;6294424;27;20035;-42
2022/08/07 16:46:23;;;;;;;0.30;0.20;;;25.20;34.70;;;;;;6302756;27;20046;-42
2022/08/07 16:50:07;;;;;;;0.55;0.30;;;25.20;34.70;;;;;;6306844;27;21428;-41
2022/08/07 16:53:44;;;;;;;0.30;0.30;;;25.10;34.70;;;;;;6294077;27;20891;-41
2022/08/07 16:57:22;;;;;;;0.30;0.30;;;25.10;34.80;;;;;;6284114;27;20047;-42
2022/08/07 17:01:08;;;;;;;0.35;0.35;;;25.20;34.90;;;;;;6296527;27;20039;-40
2022/08/07 17:04:30;;;;;;;0.50;0.40;;;25.20;34.90;;;;;;6318939;27;20047;-44
2022/08/07 17:07:49;;;;;;;0.20;0.20;;;25.10;34.90;;;;;;6301623;27;20843;-42